ADDS METAR Data INFO
IDs: Format: Raw Decoded Include TAF

Data at: 2215 UTC 24 Jun 2018

KPTT 242155Z AUTO 08005KT 10SM CLR 25/14 A2989 RMK AO2 T02530142
KPTT 242135Z AUTO 06004KT 10SM CLR 25/15 A2989 RMK AO2 T02530147
KPTT 242115Z AUTO 05006KT 10SM CLR 25/15 A2989 RMK AO2 T02480148
KPTT 242055Z AUTO 01005KT 10SM CLR 25/15 A2988 RMK AO2 T02450152
KPTT 242035Z AUTO 04006KT 10SM CLR 24/15 A2988 RMK AO2 LTG DSNT NW T02370151
KPTT 242015Z AUTO 01008KT 10SM CLR 23/15 A2989 RMK AO2 T02330152
KPTT 241955Z AUTO 19008KT 10SM CLR 23/15 A2984 RMK AO2 LTG DSNT NW T02300153
KPTT 241935Z AUTO 17013KT 10SM CLR 23/15 A2984 RMK AO2 T02280152
KPTT 241915Z AUTO 18017G21KT 10SM CLR 23/16 A2982 RMK AO2 T02270160
KPTT 241855Z AUTO 19015KT 10SM CLR 22/17 A2982 RMK AO2 LTG DSNT NW T02190166
KPTT 241835Z AUTO 18013G18KT 10SM CLR 21/17 A2982 RMK AO2 T02120165
KPTT 241815Z AUTO 18011KT 10SM CLR A2983 RMK AO2 LTG DSNT S
KPTT 241755Z AUTO 18009KT 10SM CLR A2984 RMK AO2 LTG DSNT S 60044
KPTT 241735Z AUTO 14006KT 10SM CLR A2985 RMK AO2 LTG DSNT SE AND S
KPTT 241715Z AUTO 14008KT 10SM CLR A2986 RMK AO2 LTG DSNT SE
KPTT 241655Z AUTO 12009KT 10SM CLR A2988 RMK AO2 LTG DSNT S P0001
KPTT 241635Z AUTO 13007KT 10SM CLR A2989 RMK AO2 LTG DSNT S P0001
KPTT 241615Z AUTO 10008KT 10SM VCTS SCT035 SCT050 SCT070 A2991 RMK AO2 LTG DSNT SE THRU SW P0001
KPTT 241555Z AUTO 07011KT 7SM -RA SCT075 OVC100 A2992 RMK AO2 LTG DSNT SE AND S P0015
KPTT 241535Z AUTO 34008KT 5SM +TSRA SCT075 OVC100 A3003 RMK AO2 LTG DSNT SE THRU SW P0011
KPTT 241515Z AUTO 32010KT 10SM VCTSRA SCT037 SCT049 OVC110 18/17 A3005 RMK AO2 LTG DSNT SE THRU SW P0002 T01780165
KPTT 241455Z AUTO 33012G16KT 7SM RA BKN100 OVC120 18/17 A3002 RMK AO2 LTG DSNT SE AND SW P0021 60028 T01780165
KPTT 241435Z AUTO 35010KT 5SM +RA SCT050 OVC100 18/17 A2999 RMK AO2 LTG DSNT ALQS P0016 T01800166
KPTT 241415Z AUTO 32007KT 4SM +TSRA SCT036 BKN048 OVC100 18/17 A3000 RMK AO2 LTG DSNT ALQS P0008 T01810168
KPTT 241355Z AUTO 33008KT 5SM +TSRA BKN036 BKN042 OVC090 19/17 A2998 RMK AO2 LTG DSNT ALQS P0006 T01870165
KPTT 241335Z AUTO 33007KT 10SM TSRA SCT037 BKN100 OVC120 19/16 A2996 RMK AO2 LTG DSNT ALQS T01930161
KPTT 241315Z AUTO 29008KT 10SM -RA SCT035 BKN090 OVC120 19/16 A2994 RMK AO2 LTG DSNT S THRU NW T01920158
KPTT 241255Z AUTO 26018KT 10SM SCT033 SCT090 SCT120 19/17 A2992 RMK AO2 LTG DSNT S THRU NW T01930170
KPTT 241235Z AUTO 04010KT 10SM SCT120 19/16 A2977 RMK AO2 LTG DSNT S THRU W T01940157
KPTT 241215Z AUTO 06003KT 10SM SCT120 19/16 A2976 RMK AO2 LTG DSNT S THRU NW T01900161
KPTT 241155Z AUTO 00000KT 10SM CLR 19/16 A2976 RMK AO2 LTG DSNT S THRU W 60025 70029 T01940158
KPTT 241135Z AUTO 11003KT 10SM SCT100 SCT120 19/16 A2977 RMK AO2 T01920157
KPTT 241115Z AUTO 22004KT 10SM CLR 19/16 A2980 RMK AO2 T01920155
KPTT 241055Z AUTO 29009KT 10SM CLR 20/15 A2982 RMK AO2 T01990151
KPTT 241035Z AUTO 22011KT 10SM SCT090 21/14 A2982 RMK AO2 T02070144
KPTT 241015Z AUTO 22012G16KT 10SM SCT090 SCT110 21/15 A2983 RMK AO2 LTG DSNT E T02120145
KPTT 240955Z AUTO 08008KT 10SM SCT120 21/14 A2977 RMK AO2 LTG DSNT SE T02120141
KPTT 240935Z AUTO 11011KT 10SM SCT060 SCT070 BKN120 21/14 A2972 RMK AO2 T02100140
KPTT 240915Z AUTO 10006KT 10SM SCT060 SCT070 BKN110 20/15 A2975 RMK AO2 LTG DSNT E THRU S T02020146
KPTT 240855Z AUTO 34011KT 10SM -RA SCT110 19/16 A2974 RMK AO2 LTG DSNT E THRU S P0001 60025 T01890155
KPTT 240835Z AUTO 13009G20KT 10SM SCT110 20/15 A2970 RMK AO2 LTG DSNT E THRU S P0001 T01970147
KPTT 240815Z AUTO 09014KT 10SM TS SCT070 SCT100 SCT120 A2973 RMK AO2 LTG DSNT ALQS P0001
KPTT 240755Z AUTO 02010KT 10SM -RA SCT110 18/16 A2982 RMK AO2 LTG DSNT SE AND S P0010 T01800159
KPTT 240735Z AUTO 32015G23KT 7SM VCTSRA SCT065 BKN090 BKN110 19/15 A2985 RMK AO2 LTG DSNT SE AND S P0010 T01930152
KPTT 240715Z AUTO 09006KT 5SM RA BKN065 BKN090 OVC100 A2985 RMK AO2 LTG DSNT SE THRU SW P0006
KPTT 240655Z AUTO 27009KT 10SM -VCTSRA OVC110 A2988 RMK AO2 LTG DSNT NE THRU SW P0014
KPTT 240635Z AUTO 31015KT 10SM -TSRA SCT040 SCT060 OVC100 A2991 RMK AO2 LTG DSNT ALQS P0012
KPTT 240615Z AUTO 31022G33KT 5SM TSRA SCT016 BKN047 OVC090 19/18 A2991 RMK AO2 LTG DSNT ALQS P0009 T01850175
KPTT 240555Z AUTO 31021G43KT 7SM +TSRA SCT030 BKN041 OVC100 19/17 A2992 RMK AO2 LTG DSNT ALQS P0003 60003 T01910169 10285 20191 402970160
KPTT 240535Z AUTO 29004KT 10SM VCTS OVC090 23/20 A2987 RMK AO2 LTG DSNT SW THRU NW T02250198
KPTT 240515Z AUTO 00000KT 10SM VCTS BKN090 22/19 A2985 RMK AO2 LTG DSNT W AND NW T02230193
KPTT 240455Z AUTO 00000KT 10SM SCT090 23/18 A2984 RMK AO2 LTG DSNT W AND NW T02340179
KPTT 240435Z AUTO 00000KT 10SM CLR 22/18 A2984 RMK AO2 LTG DSNT W T02170183
KPTT 240415Z AUTO 01007KT 10SM CLR 22/18 A2984 RMK AO2 LTG DSNT W AND NW T02230181
KPTT 240355Z AUTO 07004KT 10SM CLR 23/18 A2982 RMK AO2 LTG DSNT NW T02320177
KPTT 240335Z AUTO 11006KT 10SM CLR 24/18 A2981 RMK AO2 T02360180
KPTT 240315Z AUTO 10003KT 10SM CLR 24/18 A2981 RMK AO2 T02420180
KPTT 240255Z AUTO 14005KT 10SM CLR 25/18 A2981 RMK AO2 LTG DSNT W T02480178
KPTT 240235Z AUTO 14005KT 10SM CLR 25/18 A2980 RMK AO2 T02520176
KPTT 240215Z AUTO 15005KT 10SM CLR 26/18 A2980 RMK AO2 T02570175
KPTT 240155Z AUTO 17006KT 10SM CLR 26/17 A2981 RMK AO2 T02620174
KPTT 240135Z AUTO 16006KT 10SM CLR 27/17 A2981 RMK AO2 T02670171
KPTT 240115Z AUTO 16007KT 10SM CLR 27/17 A2981 RMK AO2 T02700170
KPTT 240055Z AUTO 16007KT 10SM CLR 28/17 A2981 RMK AO2 LTG DSNT NW T02750169
KPTT 240035Z AUTO 17007KT 10SM CLR 28/17 A2980 RMK AO2 LTG DSNT NW T02780174
KPTT 240015Z AUTO 18008KT 10SM CLR 28/18 A2979 RMK AO2 LTG DSNT NW T02820175
KPTT 232355Z AUTO 19009KT 10SM CLR 28/17 A2979 RMK AO2 T02840174 10297 20258
KPTT 232335Z AUTO 18009KT 10SM CLR 29/17 A2980 RMK AO2 T02890174
KPTT 232315Z AUTO 17006KT 10SM CLR 29/17 A2981 RMK AO2 T02890171
KPTT 232255Z AUTO 19007KT 10SM CLR 29/16 A2982 RMK AO2 T02930164
KPTT 232235Z AUTO 22007KT 180V240 10SM CLR 29/17 A2982 RMK AO2 T02920167
KPTT 232215Z AUTO 20007KT 150V220 10SM CLR 30/17 A2982 RMK AO2 T02960173
KPTT 232155Z AUTO 18011KT 10SM CLR 30/17 A2983 RMK AO2 T02950171
KPTT 232135Z AUTO 19005KT 10SM CLR 29/17 A2983 RMK AO2 T02900167
KPTT 232115Z AUTO 17006KT 10SM CLR 29/16 A2983 RMK AO2 T02890164
KPTT 232055Z AUTO 23008KT 10SM CLR 29/17 A2984 RMK AO2 T02900165
KPTT 232035Z AUTO 24007KT 10SM CLR 29/17 A2985 RMK AO2 T02890166
KPTT 232015Z AUTO 22005KT 10SM CLR 28/17 A2985 RMK AO2 T02810165
KPTT 231955Z AUTO 20006KT 10SM CLR 28/16 A2985 RMK AO2 T02790164
KPTT 231935Z AUTO 22008KT 10SM CLR 28/17 A2985 RMK AO2 T02780167
KPTT 231915Z AUTO 20007KT 10SM CLR 28/16 A2986 RMK AO2 T02750161
KPTT 231855Z AUTO 22005KT 10SM CLR 28/16 A2986 RMK AO2 T02770160
KPTT 231835Z AUTO 23005KT 10SM CLR 27/15 A2986 RMK AO2 T02690147
KPTT 231815Z AUTO 17004KT 10SM CLR 27/16 A2987 RMK AO2 T02680157
KPTT 231755Z AUTO 21003KT 10SM CLR 26/15 A2987 RMK AO2 T02600152 10261 20163
KPTT 231735Z AUTO 36003KT 10SM CLR 26/16 A2987 RMK AO2 T02570156
KPTT 231715Z AUTO 00000KT 10SM CLR 26/16 A2988 RMK AO2 T02550159
KPTT 231655Z AUTO 00000KT 10SM CLR 25/15 A2988 RMK AO2 T02500154
KPTT 231635Z AUTO 31003KT 10SM CLR 24/16 A2988 RMK AO2 T02440157
KPTT 231615Z AUTO 29006KT 10SM CLR 24/16 A2988 RMK AO2 T02420156
KPTT 231555Z AUTO 28003KT 10SM CLR 24/16 A2988 RMK AO2 T02350160
KPTT 231535Z AUTO 28006KT 10SM CLR 23/15 A2988 RMK AO2 T02260154
KPTT 231515Z AUTO 29004KT 10SM CLR 22/15 A2988 RMK AO2 T02230154
KPTT 231455Z AUTO 00000KT 10SM CLR 22/16 A2988 RMK AO2 T02160159
KPTT 231435Z AUTO 26003KT 10SM CLR 21/16 A2988 RMK AO2 T02080157
KPTT 231415Z AUTO 00000KT 10SM CLR 20/16 A2988 RMK AO2 T02000162
KPTT 231355Z AUTO 00000KT 10SM CLR 19/16 A2988 RMK AO2 T01910162
KPTT 231335Z AUTO 23003KT 10SM CLR 18/16 A2988 RMK AO2 T01830160
KPTT 231315Z AUTO 21005KT 10SM CLR 18/16 A2988 RMK AO2 T01790162
KPTT 231255Z AUTO 20003KT 10SM CLR 18/16 A2987 RMK AO2 T01760160
KPTT 231235Z AUTO 21003KT 10SM CLR 17/16 A2986 RMK AO2 T01700157
KPTT 231215Z AUTO 00000KT 10SM CLR 17/16 A2985 RMK AO2 T01670156
KPTT 231155Z AUTO 00000KT 10SM CLR 17/15 A2985 RMK AO2 LTG DSNT SW 70046 T01650154 10170 20160
KPTT 231135Z AUTO 00000KT 10SM CLR 16/15 A2984 RMK AO2 T01600151
KPTT 231115Z AUTO 00000KT 10SM CLR 16/15 A2984 RMK AO2 T01600152
KPTT 231055Z AUTO 36003KT 10SM CLR 16/15 A2984 RMK AO2 T01600152
KPTT 231035Z AUTO 00000KT 10SM CLR 16/15 A2983 RMK AO2 T01600151